MiSS Sylvia — WDE5412 — position and weather

sailwx.info

Track history (hours):
 
Tides and Currents Weather Stations Pressure Air Temp Water Temp Dewpoint Dewpoint Depression Visibility Wind Speed Wind Dir Waves Ship Positions

MiSS Sylvia

Owner: DOUBLE J MARINE, LLC, LAPLACE, LA. More information available from US FCC via Universal Licensing System and Coast Guard Vessel Documentation Center.

Last reported at 2014-Nov-27 05:32 UTC. Time now 2014-Nov-28 22:51 UTC.
Position N 30°02' W 090°28'.

Length 20 m; draft 2.7 m.

Type: Towing. MMSI: 367366340.

Date/timePositionNaut miles runAvg speedWind from/ knotsBaromVisibWave heightAir tempDewpointWater temp
2014-Nov-27 05:32N 30°02' W 090°28'5 0.3
2014-Nov-26 14:07N 30°03' W 090°33'1 2.3
2014-Nov-26 13:33N 30°03' W 090°35'3 1.0
2014-Nov-26 10:20N 30°03' W 090°31'4 0.8
2014-Nov-26 05:14N 30°00' W 090°28'28 1.0
2014-Nov-25 02:31N 29°53' W 089°57'3 2.5
2014-Nov-25 01:20N 29°55' W 089°55'4 4.9
2014-Nov-25 00:30N 29°56' W 089°60'3 3.3
2014-Nov-24 23:32N 29°56' W 090°03'4 4.4
2014-Nov-24 22:32N 29°55' W 090°08'  
2014-Nov-22 05:31N 29°57' W 090°01'0 0.3
2014-Nov-22 04:30N 29°57' W 090°01'6 4.1
2014-Nov-22 03:09N 29°55' W 090°07'2 2.2
2014-Nov-22 02:13N 29°56' W 090°09'0 0.1
2014-Nov-22 01:32N 29°56' W 090°08'0 0.0
2014-Nov-22 00:28N 29°56' W 090°08'0 0.1
2014-Nov-21 23:32N 29°56' W 090°08'  
2014-Nov-17 12:14N 29°54' W 090°07'0 0.0
2014-Nov-17 11:30N 29°54' W 090°07'0 0.0
2014-Nov-17 10:33N 29°54' W 090°07'0 0.0
2014-Nov-17 09:31N 29°54' W 090°07'0 0.0
2014-Nov-17 07:32N 29°54' W 090°07'0 0.0
2014-Nov-17 06:31N 29°54' W 090°07'  
Track history (hours):
 
Tides and Currents Weather Stations Pressure Air Temp Water Temp Dewpoint Dewpoint Depression Visibility Wind Speed Wind Dir Waves Ship Positions

MiSS Sylvia

Owner: DOUBLE J MARINE, LLC, LAPLACE, LA. More information available from US FCC via Universal Licensing System and Coast Guard Vessel Documentation Center.

Last reported at 2014-Nov-27 05:32 UTC. Time now 2014-Nov-28 22:51 UTC.
Position N 30°02' W 090°28'.

Length 20 m; draft 2.7 m.

Type: Towing. MMSI: 367366340.

Date/timePositionNaut miles runAvg speedWind from/ knotsBaromVisibWave heightAir tempDewpointWater temp
2014-Nov-27 05:32N 30°02' W 090°28'5 0.3
2014-Nov-26 14:07N 30°03' W 090°33'1 2.3
2014-Nov-26 13:33N 30°03' W 090°35'3 1.0
2014-Nov-26 10:20N 30°03' W 090°31'4 0.8
2014-Nov-26 05:14N 30°00' W 090°28'28 1.0
2014-Nov-25 02:31N 29°53' W 089°57'3 2.5
2014-Nov-25 01:20N 29°55' W 089°55'4 4.9
2014-Nov-25 00:30N 29°56' W 089°60'3 3.3
2014-Nov-24 23:32N 29°56' W 090°03'4 4.4
2014-Nov-24 22:32N 29°55' W 090°08'  
2014-Nov-22 05:31N 29°57' W 090°01'0 0.3
2014-Nov-22 04:30N 29°57' W 090°01'6 4.1
2014-Nov-22 03:09N 29°55' W 090°07'2 2.2
2014-Nov-22 02:13N 29°56' W 090°09'0 0.1
2014-Nov-22 01:32N 29°56' W 090°08'0 0.0
2014-Nov-22 00:28N 29°56' W 090°08'0 0.1
2014-Nov-21 23:32N 29°56' W 090°08'  
2014-Nov-17 12:14N 29°54' W 090°07'0 0.0
2014-Nov-17 11:30N 29°54' W 090°07'0 0.0
2014-Nov-17 10:33N 29°54' W 090°07'0 0.0
2014-Nov-17 09:31N 29°54' W 090°07'0 0.0
2014-Nov-17 07:32N 29°54' W 090°07'0 0.0
2014-Nov-17 06:31N 29°54' W 090°07'  

Dump ship's entire track history